createdAt,value
2019-02-05T00:04:06.586Z,30.60
2019-02-05T00:09:13.350Z,30.47
2019-02-05T00:14:19.434Z,32.10
2019-02-05T00:19:25.409Z,31.50
2019-02-05T00:24:31.437Z,32.57
2019-02-05T00:29:37.844Z,32.27
2019-02-05T00:34:44.234Z,32.37
2019-02-05T00:39:50.272Z,33.57
2019-02-05T00:44:56.332Z,35.73
2019-02-05T00:50:02.334Z,34.73
2019-02-05T00:55:10.285Z,33.97
2019-02-05T01:00:22.307Z,33.93
2019-02-05T01:05:28.453Z,35.70
2019-02-05T01:10:34.513Z,35.63
2019-02-05T01:15:40.621Z,35.17
2019-02-05T01:20:46.645Z,34.60
2019-02-05T01:25:52.772Z,37.53
2019-02-05T01:30:58.857Z,36.03
2019-02-05T01:36:05.370Z,36.40
2019-02-05T01:41:12.548Z,35.33
2019-02-05T01:46:18.596Z,38.37
2019-02-05T01:51:24.641Z,36.53
2019-02-05T01:56:40.413Z,37.13
2019-02-05T02:01:38.426Z,38.37
2019-02-05T02:06:44.528Z,39.90
2019-02-05T02:11:51.040Z,38.37
2019-02-05T02:16:57.033Z,36.77
2019-02-05T02:22:03.086Z,38.27
2019-02-05T02:27:09.254Z,38.53
2019-02-05T02:32:15.294Z,38.47
2019-02-05T02:37:21.406Z,36.80
2019-02-05T02:42:27.534Z,38.17
2019-02-05T02:47:33.573Z,38.67
2019-02-05T02:52:39.633Z,38.77
2019-02-05T02:57:46.223Z,37.93
2019-02-05T03:02:52.362Z,38.63
2019-02-05T03:07:58.721Z,39.13
2019-02-05T03:13:04.760Z,39.27
2019-02-05T03:18:10.881Z,38.30
2019-02-05T03:23:17.007Z,39.10
2019-02-05T03:28:22.978Z,38.70
2019-02-05T03:33:30.362Z,38.33
2019-02-05T03:38:37.556Z,39.80
2019-02-05T03:43:43.607Z,39.53
2019-02-05T03:48:50.855Z,39.47
2019-02-05T03:54:05.440Z,39.37
2019-02-05T03:59:26.359Z,40.37
2019-02-05T04:05:02.037Z,39.43
2019-02-05T04:11:01.748Z,40.03
2019-02-05T04:16:33.519Z,39.23
2019-02-05T04:22:26.972Z,39.50
2019-02-05T04:28:00.873Z,38.83
2019-02-05T04:33:29.426Z,39.90
2019-02-05T04:39:24.012Z,39.17
2019-02-05T04:45:34.174Z,38.63
2019-02-05T04:51:12.305Z,38.27
2019-02-05T04:56:36.684Z,40.60
2019-02-05T05:02:00.172Z,41.53
2019-02-05T05:07:46.150Z,42.70
2019-02-05T05:12:52.272Z,43.17
2019-02-05T05:17:58.475Z,42.37
2019-02-05T05:23:05.183Z,41.77
2019-02-05T05:28:11.203Z,42.13
2019-02-05T05:33:17.346Z,44.50
2019-02-05T05:38:24.145Z,42.93
2019-02-05T05:43:30.230Z,44.57
2019-02-05T05:48:36.342Z,46.23
2019-02-05T05:53:42.461Z,44.40
2019-02-05T05:58:48.453Z,41.70
2019-02-05T06:03:54.527Z,43.83
2019-02-05T06:09:00.537Z,43.03
2019-02-05T06:14:08.029Z,43.47
2019-02-05T06:19:14.130Z,43.47
2019-02-05T06:24:20.637Z,41.77
2019-02-05T06:29:26.716Z,40.37
2019-02-05T06:34:32.730Z,45.17
2019-02-05T06:39:38.926Z,42.40
2019-02-05T06:44:45.028Z,42.00
2019-02-05T06:49:51.049Z,42.63
2019-02-05T06:54:57.133Z,42.17
2019-02-05T07:00:03.431Z,42.83
2019-02-05T07:05:10.505Z,42.57
2019-02-05T07:10:18.619Z,42.70
2019-02-05T07:15:24.795Z,41.90
2019-02-05T07:20:31.307Z,41.00
2019-02-05T07:25:37.477Z,41.00
2019-02-05T07:30:43.577Z,41.60
2019-02-05T07:35:49.647Z,40.57
2019-02-05T07:40:55.833Z,40.67
2019-02-05T07:46:02.017Z,41.20
2019-02-05T07:51:08.471Z,41.87
2019-02-05T07:56:14.604Z,38.83
2019-02-05T08:01:20.771Z,42.07
2019-02-05T08:06:26.966Z,40.17
2019-02-05T08:11:33.173Z,40.10
2019-02-05T08:16:39.530Z,39.77
2019-02-05T08:21:46.462Z,39.93
2019-02-05T08:26:52.589Z,40.57
2019-02-05T08:31:58.751Z,39.60
2019-02-05T08:37:04.874Z,36.90
2019-02-05T08:42:11.583Z,41.00
2019-02-05T08:47:17.690Z,43.87
2019-02-05T08:52:23.713Z,43.43
2019-02-05T08:57:29.848Z,42.17
2019-02-05T09:02:36.083Z,42.20
2019-02-05T09:07:42.523Z,44.17
2019-02-05T09:12:48.649Z,43.00
2019-02-05T09:17:55.639Z,42.53
2019-02-05T09:23:01.779Z,41.03
2019-02-05T09:28:08.016Z,42.77
2019-02-05T09:33:14.501Z,42.40
2019-02-05T09:38:20.763Z,40.73
2019-02-05T09:43:26.963Z,39.30
2019-02-05T09:48:33.115Z,39.13
2019-02-05T09:53:39.170Z,38.27
2019-02-05T09:58:45.298Z,36.87
2019-02-05T10:03:51.475Z,35.50
2019-02-05T10:08:57.979Z,36.83
2019-02-05T10:14:04.249Z,34.50
2019-02-05T10:19:10.354Z,35.73
2019-02-05T10:24:16.694Z,37.40
2019-02-05T10:29:22.907Z,37.23
2019-02-05T10:34:34.242Z,36.07
2019-02-05T10:39:37.444Z,32.67
2019-02-05T10:44:43.505Z,31.07
2019-02-05T10:49:49.719Z,32.47
2019-02-05T10:54:55.847Z,31.17
2019-02-05T11:00:08.971Z,31.47
2019-02-05T11:05:11.081Z,31.47
2019-02-05T11:10:17.396Z,32.50
2019-02-05T11:15:25.761Z,31.40
2019-02-05T11:20:31.874Z,33.20
2019-02-05T11:25:38.357Z,32.03
2019-02-05T11:30:45.629Z,32.83
2019-02-05T11:35:52.179Z,31.50
2019-02-05T11:40:58.316Z,34.77
2019-02-05T11:46:04.463Z,32.17
2019-02-05T11:51:10.599Z,31.90
2019-02-05T11:56:17.154Z,32.30
2019-02-05T12:01:38.119Z,31.27
2019-02-05T12:06:35.602Z,30.47
2019-02-05T12:11:42.076Z,30.73
2019-02-05T12:16:49.158Z,28.50
2019-02-05T12:21:55.293Z,26.70
2019-02-05T12:27:01.439Z,27.57
2019-02-05T12:32:07.618Z,27.40
2019-02-05T12:37:14.071Z,27.00
2019-02-05T12:42:20.238Z,29.37
2019-02-05T12:47:26.395Z,30.30
2019-02-05T12:52:32.448Z,30.57
2019-02-05T12:57:38.542Z,30.73
2019-02-05T13:02:44.754Z,30.07
2019-02-05T13:07:50.898Z,30.13
2019-02-05T13:12:57.604Z,30.53
2019-02-05T13:18:03.820Z,30.80
2019-02-05T13:23:10.386Z,31.93
2019-02-05T13:28:16.794Z,34.43
2019-02-05T13:33:23.369Z,34.97
2019-02-05T13:38:29.532Z,34.20
2019-02-05T13:43:35.748Z,35.40
2019-02-05T13:48:41.898Z,37.53
2019-02-05T13:53:48.046Z,35.30
2019-02-05T13:58:54.270Z,35.57
2019-02-05T14:04:00.425Z,36.50
2019-02-05T14:09:11.898Z,31.90
2019-02-05T14:14:18.158Z,32.23
2019-02-05T14:19:24.417Z,30.30
2019-02-05T14:24:30.587Z,29.87
2019-02-05T14:29:36.714Z,28.73
2019-02-05T14:34:42.846Z,29.13
2019-02-05T14:39:49.566Z,29.40
2019-02-05T14:44:56.079Z,30.07
2019-02-05T14:50:02.237Z,31.17
2019-02-05T14:55:08.473Z,31.63
2019-02-05T15:00:18.628Z,33.40
2019-02-05T15:05:24.884Z,34.97
2019-02-05T15:10:32.112Z,34.00
2019-02-05T15:15:38.365Z,35.33
2019-02-05T15:20:46.271Z,35.20
2019-02-05T15:25:52.511Z,36.17
2019-02-05T15:30:58.677Z,36.07
2019-02-05T15:36:14.256Z,34.77
2019-02-05T15:41:20.486Z,35.73
2019-02-05T15:46:26.726Z,35.90
2019-02-05T15:51:32.790Z,35.33
2019-02-05T15:56:39.099Z,36.37
2019-02-05T16:01:45.675Z,34.80
2019-02-05T16:06:51.859Z,35.40
2019-02-05T16:11:58.122Z,36.37
2019-02-05T16:17:04.354Z,37.63
2019-02-05T16:22:10.514Z,37.47
2019-02-05T16:27:16.660Z,37.37
2019-02-05T16:32:22.747Z,37.17
2019-02-05T16:37:29.032Z,36.90
2019-02-05T16:42:35.179Z,37.03
2019-02-05T16:47:41.319Z,37.73
2019-02-05T16:52:47.486Z,37.37
2019-02-05T16:57:53.775Z,35.43
2019-02-05T17:02:59.949Z,34.33
2019-02-05T17:08:06.322Z,32.93
2019-02-05T17:13:12.498Z,33.20
2019-02-05T17:18:23.630Z,33.43
2019-02-05T17:23:26.551Z,34.90
2019-02-05T17:28:32.681Z,35.37
2019-02-05T17:33:40.323Z,35.07
2019-02-05T17:38:46.442Z,36.47
2019-02-05T17:43:52.727Z,35.00
2019-02-05T17:48:58.895Z,33.67
2019-02-05T17:54:05.879Z,32.80
2019-02-05T17:59:12.103Z,31.63
2019-02-05T18:04:18.258Z,31.53
2019-02-05T18:09:26.564Z,30.93
2019-02-05T18:14:32.678Z,29.57
2019-02-05T18:19:38.782Z,30.40
2019-02-05T18:24:45.044Z,28.67
2019-02-05T18:29:51.180Z,28.73
2019-02-05T18:34:58.283Z,28.43
2019-02-05T18:40:05.310Z,27.67
2019-02-05T18:45:13.170Z,27.27
2019-02-05T18:50:22.346Z,26.60
2019-02-05T18:55:29.398Z,28.07
2019-02-05T19:00:38.797Z,25.97
2019-02-05T19:05:45.210Z,26.73
2019-02-05T19:10:51.385Z,24.40
2019-02-05T19:15:57.567Z,25.07
2019-02-05T19:21:04.173Z,25.53
2019-02-05T19:26:35.772Z,25.93
2019-02-05T19:31:44.625Z,24.87
2019-02-05T19:36:51.598Z,24.10
2019-02-05T19:41:57.746Z,23.90
2019-02-05T19:47:06.895Z,23.57
2019-02-05T19:52:13.103Z,24.57
2019-02-05T19:57:19.269Z,21.90
2019-02-05T20:02:25.642Z,21.83
2019-02-05T20:07:31.901Z,21.10
2019-02-05T20:12:38.101Z,21.23
2019-02-05T20:17:44.263Z,22.17
2019-02-05T20:22:50.442Z,20.33
2019-02-05T20:27:56.650Z,19.20
2019-02-05T20:33:03.331Z,18.93
2019-02-05T20:38:09.935Z,18.50
2019-02-05T20:43:16.159Z,17.27
2019-02-05T20:48:22.286Z,17.67
2019-02-05T20:53:29.901Z,17.30
2019-02-05T20:58:36.066Z,17.53
2019-02-05T21:03:43.155Z,17.30
2019-02-05T21:08:49.316Z,17.27
2019-02-05T21:13:55.586Z,17.00
2019-02-05T21:19:01.633Z,16.93
2019-02-05T21:24:07.827Z,15.67
2019-02-05T21:29:14.011Z,16.37
2019-02-05T21:34:20.156Z,15.60
2019-02-05T21:39:26.608Z,14.63
2019-02-05T21:44:32.686Z,15.23
2019-02-05T21:49:38.766Z,14.77
2019-02-05T21:54:44.943Z,16.70
2019-02-05T21:59:51.031Z,16.03
2019-02-05T22:04:57.158Z,15.13
2019-02-05T22:10:03.343Z,13.60
2019-02-05T22:15:14.400Z,12.50
2019-02-05T22:20:22.473Z,11.47
2019-02-05T22:25:28.890Z,11.67
2019-02-05T22:30:35.155Z,11.27
2019-02-05T22:35:41.603Z,12.50
2019-02-05T22:40:47.980Z,11.93
2019-02-05T22:45:54.364Z,12.00
2019-02-05T22:51:00.834Z,12.17
2019-02-05T22:56:07.251Z,12.50
2019-02-05T23:01:37.840Z,11.07
2019-02-05T23:07:10.191Z,10.93
2019-02-05T23:12:32.892Z,10.83
2019-02-05T23:17:39.423Z,11.50
2019-02-05T23:22:45.650Z,11.40
2019-02-05T23:27:52.052Z,11.10
2019-02-05T23:32:58.921Z,11.70
2019-02-05T23:38:05.898Z,11.13
2019-02-05T23:43:11.927Z,10.73
2019-02-05T23:48:17.904Z,10.53
2019-02-05T23:53:24.125Z,10.10
2019-02-05T23:58:30.227Z,10.27
